createdAt,value
2022-10-25T00:13:09.580Z,14.9
2022-10-25T00:27:43.843Z,14.9
2022-10-25T00:42:18.410Z,14.9
2022-10-25T00:56:50.950Z,14.9
2022-10-25T01:11:25.267Z,14.8
2022-10-25T01:25:57.898Z,14.9
2022-10-25T01:40:29.708Z,14.9
2022-10-25T01:55:03.947Z,14.8
2022-10-25T02:09:37.762Z,14.8
2022-10-25T02:24:17.206Z,14.6
2022-10-25T02:38:48.228Z,14.7
2022-10-25T02:53:25.077Z,14.6
2022-10-25T03:07:57.828Z,14.5
2022-10-25T03:22:31.387Z,14.3
2022-10-25T03:37:04.624Z,14.3
2022-10-25T03:51:36.654Z,14.4
2022-10-25T04:06:08.782Z,14.3
2022-10-25T04:20:43.262Z,14.3
2022-10-25T04:35:17.804Z,14.2
2022-10-25T04:49:51.199Z,14.1
2022-10-25T05:04:23.413Z,14.1
2022-10-25T05:18:58.760Z,13.6
2022-10-25T05:33:31.100Z,13.8
2022-10-25T05:48:04.520Z,13.7
2022-10-25T06:02:39.443Z,13.8
2022-10-25T06:17:13.238Z,13.7
2022-10-25T06:31:47.280Z,13.8
2022-10-25T06:46:21.701Z,14
2022-10-25T07:00:57.270Z,14
2022-10-25T07:15:32.075Z,14.1
2022-10-25T07:30:05.565Z,14.1
2022-10-25T07:44:40.302Z,14.3
2022-10-25T07:59:14.484Z,14.2
2022-10-25T08:13:49.084Z,14.2
2022-10-25T08:28:24.201Z,14.5
2022-10-25T08:42:59.611Z,14.6
2022-10-25T08:57:33.338Z,14.8
2022-10-25T09:12:08.394Z,15
2022-10-25T09:26:43.327Z,15.1
2022-10-25T09:41:18.527Z,15.1
2022-10-25T09:55:53.270Z,15.6
2022-10-25T10:10:26.519Z,15.6
2022-10-25T10:25:01.280Z,15.7
2022-10-25T10:39:35.871Z,15.7
2022-10-25T10:54:09.889Z,15.4
2022-10-25T11:08:46.299Z,15.8
2022-10-25T11:23:25.824Z,15.8
2022-10-25T11:38:02.422Z,16.1
2022-10-25T11:52:32.790Z,15.9
2022-10-25T12:07:06.806Z,16
2022-10-25T12:21:40.925Z,15.9
2022-10-25T12:36:15.514Z,16.2
2022-10-25T12:50:49.746Z,16.3
2022-10-25T13:05:26.663Z,16.6
2022-10-25T13:19:58.935Z,16.6
2022-10-25T13:34:32.539Z,16.4
2022-10-25T13:49:06.668Z,16.6
2022-10-25T14:03:40.468Z,16.5
2022-10-25T14:18:22.307Z,16.5
2022-10-25T14:32:52.009Z,16.3
2022-10-25T14:47:26.435Z,16.7
2022-10-25T15:02:00.969Z,16.4
2022-10-25T15:16:34.948Z,16.4
2022-10-25T15:31:16.022Z,16.1
2022-10-25T15:45:54.799Z,15.7
2022-10-25T16:00:26.994Z,15.6
2022-10-25T16:14:57.526Z,15.1
2022-10-25T16:29:36.566Z,14.4
2022-10-25T16:44:13.032Z,14.6
2022-10-25T16:58:42.835Z,14.3
2022-10-25T17:13:15.900Z,14
2022-10-25T17:27:48.682Z,14.1
2022-10-25T17:42:23.037Z,14.3
2022-10-25T17:56:57.251Z,14.1
2022-10-25T18:11:29.362Z,13.9
2022-10-25T18:26:03.579Z,13.7
2022-10-25T18:40:37.661Z,13.1
2022-10-25T18:55:15.973Z,12.5
2022-10-25T19:09:47.706Z,12.2
2022-10-25T19:24:15.818Z,12.1
2022-10-25T19:38:49.999Z,12.3
2022-10-25T19:53:27.382Z,11.9
2022-10-25T20:08:02.218Z,11.8
2022-10-25T20:22:32.651Z,11.4
2022-10-25T20:37:04.917Z,10.8
2022-10-25T20:51:37.308Z,10.6
2022-10-25T21:06:10.287Z,10.3
2022-10-25T21:20:44.205Z,10.6
2022-10-25T21:35:19.891Z,10.8
2022-10-25T21:49:52.940Z,10.8
2022-10-25T22:04:25.529Z,10.3
2022-10-25T22:18:59.916Z,10.4
2022-10-25T22:33:35.156Z,11.1
2022-10-25T22:48:08.893Z,10.2
2022-10-25T23:02:43.593Z,10.3
2022-10-25T23:17:17.125Z,10.1
2022-10-25T23:31:51.474Z,10.3
2022-10-25T23:46:24.414Z,10.8
